createdAt,value
2022-11-28T00:09:41.228Z,7.1
2022-11-28T00:19:41.905Z,7
2022-11-28T00:39:43.250Z,7
2022-11-28T00:59:44.352Z,7
2022-11-28T01:09:44.728Z,7
2022-11-28T01:19:44.796Z,7.1
2022-11-28T01:29:45.196Z,7.1
2022-11-28T01:39:45.661Z,7.2
2022-11-28T01:49:46.096Z,7.3
2022-11-28T01:59:46.238Z,7.3
2022-11-28T02:09:46.677Z,7.3
2022-11-28T02:19:47.553Z,7.4
2022-11-28T02:29:48.534Z,7.4
2022-11-28T02:39:49.082Z,7.4
2022-11-28T02:49:49.521Z,7.4
2022-11-28T02:59:50.481Z,7.4
2022-11-28T03:09:50.963Z,7.4
2022-11-28T03:19:51.747Z,7.4
2022-11-28T03:29:52.458Z,7.4
2022-11-28T03:49:54.185Z,7.3
2022-11-28T03:59:54.680Z,7.2
2022-11-28T04:19:54.868Z,7.2
2022-11-28T04:29:54.920Z,7.2
2022-11-28T04:39:55.536Z,7.2
2022-11-28T04:49:56.352Z,7.2
2022-11-28T04:59:57.109Z,7.2
2022-11-28T05:19:58.703Z,7.1
2022-11-28T05:29:59.551Z,7.1
2022-11-28T05:40:00.034Z,7.1
2022-11-28T05:50:00.735Z,7.1
2022-11-28T06:00:01.705Z,7.1
2022-11-28T06:20:03.602Z,7.1
2022-11-28T06:30:04.228Z,7.1
2022-11-28T06:50:05.019Z,7.2
2022-11-28T07:00:05.122Z,7.2
2022-11-28T07:20:06.499Z,7.2
2022-11-28T07:40:07.390Z,7.2
2022-11-28T07:50:07.631Z,7.2
2022-11-28T08:00:08.292Z,7.2
2022-11-28T08:20:09.069Z,7.2
2022-11-28T08:30:09.382Z,7.3
2022-11-28T08:40:09.947Z,7.5
2022-11-28T09:10:11.961Z,7.7
2022-11-28T11:00:18.529Z,8
2022-11-28T11:20:19.153Z,8
2022-11-28T11:30:20.009Z,8
2022-11-28T11:40:20.502Z,7.9
2022-11-28T11:50:20.586Z,7.9
2022-11-28T12:00:21.473Z,7.9
2022-11-28T12:20:23.044Z,7.9
2022-11-28T12:40:23.544Z,7.9
2022-11-28T12:50:24.250Z,7.9
2022-11-28T13:10:25.355Z,7.9
2022-11-28T13:30:25.987Z,7.9
2022-11-28T13:50:27.634Z,8
2022-11-28T14:00:28.062Z,8
2022-11-28T14:10:28.549Z,8
2022-11-28T14:30:29.957Z,8
2022-11-28T14:40:30.479Z,8
2022-11-28T14:50:30.651Z,8
2022-11-28T15:00:31.469Z,8
2022-11-28T15:30:32.911Z,7.9
2022-11-28T15:40:33.291Z,7.9
2022-11-28T15:50:33.965Z,7.9
2022-11-28T16:00:34.254Z,7.9
2022-11-28T16:20:34.961Z,7.8
2022-11-28T16:30:35.910Z,7.9
2022-11-28T16:40:36.281Z,7.8
2022-11-28T16:50:37.180Z,7.8
2022-11-28T17:00:37.403Z,7.8
2022-11-28T17:20:38.176Z,7.9
2022-11-28T17:30:38.738Z,7.9
2022-11-28T17:40:39.399Z,7.9
2022-11-28T17:50:40.102Z,7.9
2022-11-28T18:00:40.566Z,8
2022-11-28T18:10:41.459Z,8
2022-11-28T18:20:42.288Z,8
2022-11-28T18:30:42.856Z,8
2022-11-28T18:40:43.034Z,8
2022-11-28T18:50:43.344Z,8.1
2022-11-28T19:00:43.561Z,8.1
2022-11-28T19:20:44.783Z,8.2
2022-11-28T19:30:45.724Z,8.2
2022-11-28T19:40:46.563Z,8.2
2022-11-28T19:50:46.954Z,8.2
2022-11-28T20:00:47.078Z,8.2
2022-11-28T20:10:47.366Z,8.2
2022-11-28T20:30:48.614Z,8.2
2022-11-28T20:40:49.124Z,8.2
2022-11-28T20:50:49.363Z,8.3
2022-11-28T21:00:49.516Z,8.3
2022-11-28T21:20:51.094Z,8.3
2022-11-28T21:30:51.333Z,8.4
2022-11-28T21:50:51.821Z,8.4
2022-11-28T22:10:52.652Z,8.4
2022-11-28T22:20:53.403Z,8.4
2022-11-28T22:50:54.984Z,8.3
2022-11-28T23:00:55.377Z,8.3
2022-11-28T23:20:55.595Z,8.3
2022-11-28T23:30:56.404Z,8.3
2022-11-28T23:40:56.950Z,8.3
